Time;durP1;ratioP1;P1;durP2;ratioP2;P2;SDS_P1;SDS_P2;PMS_P1;PMS_P2;Temp;Humidity;BMP_temperature;BMP_pressure;BME280_temperature;BME280_humidity;BME280_pressure;Samples;Min_cycle;Max_cycle;Signal;HPM_P1;HPM_P2
2022/06/28 00:00:54;;;;;;;6.78;3.33;;;;;;;;;;5062744;28;20021;-76
2022/06/28 00:03:20;;;;;;;12.57;3.50;;;;;;;;;;5065135;28;20467;-77
2022/06/28 00:05:46;;;;;;;7.70;3.38;;;;;;;;;;5060911;28;20112;-76
2022/06/28 00:08:12;;;;;;;9.85;3.13;;;;;;;;;;5060296;28;20033;-76
2022/06/28 00:10:38;;;;;;;9.50;3.20;;;;;;;;;;5069084;28;20025;-77
2022/06/28 00:13:05;;;;;;;13.98;4.28;;;;;;;;;;5072167;28;20051;-75
2022/06/28 00:18:16;;;;;;;9.23;3.20;;;;;;;;;;5065422;28;20182;-76
2022/06/28 00:20:42;;;;;;;15.80;3.15;;;;;;;;;;5067641;28;20251;-76
2022/06/28 00:23:08;;;;;;;7.82;3.15;;;;;;;;;;5068420;28;20028;-77
2022/06/28 00:25:34;;;;;;;11.52;3.22;;;;;;;;;;5054547;28;20059;-76
2022/06/28 00:28:00;;;;;;;12.43;4.03;;;;;;;;;;5067190;28;20157;-77
2022/06/28 00:30:26;;;;;;;8.75;4.15;;;;;;;;;;5059437;28;20033;-76
2022/06/28 00:32:53;;;;;;;8.10;3.45;;;;;;;;;;5065046;28;20486;-76
2022/06/28 00:35:19;;;;;;;6.80;2.92;;;;;;;;;;5063356;28;20047;-77
2022/06/28 00:37:45;;;;;;;9.05;3.53;;;;;;;;;;5065155;28;20029;-76
2022/06/28 00:40:11;;;;;;;12.23;3.35;;;;;;;;;;5063877;28;20073;-76
2022/06/28 00:42:38;;;;;;;5.72;3.22;;;;;;;;;;5059096;28;20064;-76
2022/06/28 00:45:05;;;;;;;10.15;3.70;;;;;;;;;;5060886;28;20040;-75
2022/06/28 00:47:31;;;;;;;8.63;3.92;;;;;;;;;;5056070;28;20355;-76
2022/06/28 00:49:57;;;;;;;8.50;2.90;;;;;;;;;;5063826;28;20451;-75
2022/06/28 00:52:23;;;;;;;13.60;3.60;;;;;;;;;;5059769;28;20490;-77
2022/06/28 00:54:49;;;;;;;10.38;3.42;;;;;;;;;;5057863;28;20036;-76
2022/06/28 00:57:16;;;;;;;4.82;3.00;;;;;;;;;;5061107;28;20017;-76
2022/06/28 00:59:42;;;;;;;7.63;2.97;;;;;;;;;;5056895;28;20103;-74
2022/06/28 01:02:08;;;;;;;8.10;3.28;;;;;;;;;;5064565;28;20394;-76
2022/06/28 01:04:34;;;;;;;11.25;3.30;;;;;;;;;;5054637;28;20059;-77
2022/06/28 01:07:00;;;;;;;8.32;3.60;;;;;;;;;;5055987;28;20259;-76
2022/06/28 01:09:27;;;;;;;13.15;4.00;;;;;;;;;;5063463;28;20025;-76
2022/06/28 01:11:53;;;;;;;13.63;3.50;;;;;;;;;;5062986;28;20027;-76
2022/06/28 01:14:19;;;;;;;9.57;2.90;;;;;;;;;;5063139;28;20021;-75
2022/06/28 01:16:46;;;;;;;13.63;3.10;;;;;;;;;;5066017;28;20032;-77
2022/06/28 01:19:14;;;;;;;8.68;2.95;;;;;;;;;;5065075;28;20448;-75
2022/06/28 01:21:42;;;;;;;10.65;3.63;;;;;;;;;;5061992;28;20095;-75
2022/06/28 01:24:08;;;;;;;8.80;3.38;;;;;;;;;;5058487;28;20036;-76
2022/06/28 01:26:35;;;;;;;8.93;3.78;;;;;;;;;;5075201;28;20122;-75
2022/06/28 01:29:01;;;;;;;6.75;3.28;;;;;;;;;;5055576;28;20143;-77
2022/06/28 01:31:28;;;;;;;10.25;3.38;;;;;;;;;;5066580;28;20028;-75
2022/06/28 01:33:54;;;;;;;12.38;4.60;;;;;;;;;;5056047;28;20016;-76
2022/06/28 01:36:21;;;;;;;10.10;3.08;;;;;;;;;;5064918;28;20027;-75
2022/06/28 01:38:47;;;;;;;16.50;4.85;;;;;;;;;;5068091;28;20105;-76
2022/06/28 01:41:32;;;;;;;10.85;3.60;;;;;;;;;;5056531;28;20464;-76
2022/06/28 01:43:59;;;;;;;6.45;3.20;;;;;;;;;;5056997;28;20055;-76
2022/06/28 01:46:26;;;;;;;6.72;3.15;;;;;;;;;;5062538;28;20474;-76
2022/06/28 01:48:52;;;;;;;6.90;3.20;;;;;;;;;;5059085;28;20081;-75
2022/06/28 01:51:18;;;;;;;9.02;3.40;;;;;;;;;;5059352;28;20377;-76
2022/06/28 01:53:44;;;;;;;10.13;3.38;;;;;;;;;;5055725;28;20032;-76
2022/06/28 01:56:11;;;;;;;13.90;3.75;;;;;;;;;;5056881;28;20028;-77
2022/06/28 01:58:39;;;;;;;5.65;2.80;;;;;;;;;;5063870;28;20029;-76
2022/06/28 02:01:05;;;;;;;6.78;3.25;;;;;;;;;;5054010;28;20078;-76
2022/06/28 02:03:31;;;;;;;11.73;3.35;;;;;;;;;;5060183;28;20028;-76
2022/06/28 02:05:57;;;;;;;9.18;2.90;;;;;;;;;;5053025;28;20453;-75
2022/06/28 02:08:23;;;;;;;9.18;2.85;;;;;;;;;;5050823;28;20063;-75
2022/06/28 02:10:50;;;;;;;10.98;3.63;;;;;;;;;;5056849;28;20066;-74
2022/06/28 02:13:16;;;;;;;10.23;3.80;;;;;;;;;;5066052;28;20116;-76
2022/06/28 02:15:42;;;;;;;13.20;2.75;;;;;;;;;;5052202;28;20441;-76
2022/06/28 02:18:08;;;;;;;7.13;2.60;;;;;;;;;;5054602;28;20040;-75
2022/06/28 02:20:34;;;;;;;5.20;2.60;;;;;;;;;;5055321;28;20104;-76
2022/06/28 02:23:00;;;;;;;5.70;2.20;;;;;;;;;;5057069;28;20075;-75
2022/06/28 02:25:26;;;;;;;6.28;2.72;;;;;;;;;;5057764;28;20029;-75
2022/06/28 02:27:52;;;;;;;3.63;1.92;;;;;;;;;;5053549;28;20029;-75
2022/06/28 02:30:19;;;;;;;7.47;2.75;;;;;;;;;;5059727;28;20501;-75
2022/06/28 02:32:45;;;;;;;6.32;2.38;;;;;;;;;;5058595;28;20372;-77
2022/06/28 02:41:00;;;;;;;6.20;3.33;;;;;;;;;;5038850;28;20659;-76
2022/06/28 02:43:26;;;;;;;9.90;3.08;;;;;;;;;;5049638;28;20044;-77
2022/06/28 02:45:52;;;;;;;10.57;2.53;;;;;;;;;;5051646;28;20043;-76
2022/06/28 02:48:19;;;;;;;4.80;2.38;;;;;;;;;;5060886;28;20035;-75
2022/06/28 02:50:45;;;;;;;2.75;2.10;;;;;;;;;;5057777;28;20079;-76
2022/06/28 02:53:11;;;;;;;6.82;2.90;;;;;;;;;;5063811;28;20033;-75
2022/06/28 02:55:37;;;;;;;7.75;2.67;;;;;;;;;;5057475;28;20024;-75
2022/06/28 02:58:03;;;;;;;7.32;2.60;;;;;;;;;;5054322;28;20432;-75
2022/06/28 03:00:29;;;;;;;7.95;2.50;;;;;;;;;;5057365;28;20053;-75
2022/06/28 03:02:55;;;;;;;10.45;4.15;;;;;;;;;;5064575;28;20067;-75
2022/06/28 03:05:22;;;;;;;6.68;2.55;;;;;;;;;;5059770;28;20123;-76
2022/06/28 03:07:49;;;;;;;4.90;2.33;;;;;;;;;;5059121;28;20024;-75
2022/06/28 03:10:18;;;;;;;4.05;2.38;;;;;;;;;;5061915;28;20482;-75
2022/06/28 03:12:44;;;;;;;7.45;3.03;;;;;;;;;;5057742;28;20566;-76
2022/06/28 03:15:11;;;;;;;6.18;2.67;;;;;;;;;;5056096;28;20025;-75
2022/06/28 03:17:37;;;;;;;6.10;2.45;;;;;;;;;;5059045;28;20044;-75
2022/06/28 03:20:03;;;;;;;7.60;2.40;;;;;;;;;;5060913;28;20036;-75
2022/06/28 03:22:29;;;;;;;7.97;2.53;;;;;;;;;;5069450;28;20032;-75
2022/06/28 03:24:56;;;;;;;5.82;2.13;;;;;;;;;;5057677;28;20048;-74
2022/06/28 03:27:22;;;;;;;5.05;2.40;;;;;;;;;;5057361;28;20064;-76
2022/06/28 03:29:51;;;;;;;7.43;2.75;;;;;;;;;;5061149;28;20497;-74
2022/06/28 03:32:17;;;;;;;5.35;2.25;;;;;;;;;;5060118;28;20040;-75
2022/06/28 03:34:43;;;;;;;5.47;2.47;;;;;;;;;;5054325;28;20052;-77
2022/06/28 03:37:09;;;;;;;6.43;2.10;;;;;;;;;;5059456;28;20032;-74
2022/06/28 03:39:35;;;;;;;3.83;2.25;;;;;;;;;;5058918;28;20036;-74
2022/06/28 03:42:02;;;;;;;8.02;2.28;;;;;;;;;;5058218;28;20111;-75
2022/06/28 03:44:28;;;;;;;5.43;2.17;;;;;;;;;;5057461;28;20025;-74
2022/06/28 03:46:54;;;;;;;3.65;2.20;;;;;;;;;;5063702;28;20073;-74
2022/06/28 03:49:20;;;;;;;3.15;1.83;;;;;;;;;;5056542;28;20116;-75
2022/06/28 03:51:47;;;;;;;5.43;2.53;;;;;;;;;;5063234;28;20486;-75
2022/06/28 03:54:13;;;;;;;3.53;2.08;;;;;;;;;;5055847;28;20115;-75
2022/06/28 03:56:39;;;;;;;4.03;2.10;;;;;;;;;;5060867;28;20020;-74
2022/06/28 03:59:05;;;;;;;4.20;1.85;;;;;;;;;;5058930;28;20025;-75
2022/06/28 04:01:31;;;;;;;3.25;2.22;;;;;;;;;;5063283;28;20033;-75
2022/06/28 04:03:57;;;;;;;5.82;2.38;;;;;;;;;;5056187;28;20036;-75
2022/06/28 04:06:23;;;;;;;3.15;2.10;;;;;;;;;;5051908;28;20035;-75
2022/06/28 04:08:49;;;;;;;2.78;2.15;;;;;;;;;;5056537;28;20182;-75
2022/06/28 04:11:15;;;;;;;4.78;2.10;;;;;;;;;;5065554;28;20029;-76
2022/06/28 04:13:43;;;;;;;4.28;2.00;;;;;;;;;;5062360;28;20031;-75
2022/06/28 04:16:09;;;;;;;2.58;1.92;;;;;;;;;;5054767;28;20563;-75
2022/06/28 04:18:35;;;;;;;9.30;2.70;;;;;;;;;;5062365;28;20036;-75
2022/06/28 04:21:02;;;;;;;3.45;1.85;;;;;;;;;;5060782;28;20040;-76
2022/06/28 04:23:28;;;;;;;4.40;1.90;;;;;;;;;;5059577;28;20025;-75
2022/06/28 04:25:54;;;;;;;4.25;2.10;;;;;;;;;;5055579;28;20254;-76
2022/06/28 04:28:21;;;;;;;3.35;2.10;;;;;;;;;;5058979;28;20147;-76
2022/06/28 04:30:48;;;;;;;4.50;2.33;;;;;;;;;;5061842;28;20041;-76
2022/06/28 04:33:14;;;;;;;2.58;1.70;;;;;;;;;;5057572;28;20543;-75
2022/06/28 04:35:40;;;;;;;3.03;1.95;;;;;;;;;;5058611;28;20056;-75
2022/06/28 04:38:06;;;;;;;2.85;1.70;;;;;;;;;;5059259;28;20027;-75
2022/06/28 04:40:32;;;;;;;3.95;1.80;;;;;;;;;;5053855;28;20032;-76
2022/06/28 04:42:58;;;;;;;6.18;2.05;;;;;;;;;;5059942;28;20024;-75
2022/06/28 04:45:24;;;;;;;3.28;1.83;;;;;;;;;;5056048;28;20024;-75
2022/06/28 04:47:50;;;;;;;4.30;1.77;;;;;;;;;;5055158;28;20013;-74
2022/06/28 04:50:16;;;;;;;3.70;2.30;;;;;;;;;;5052123;28;20544;-75
2022/06/28 04:52:42;;;;;;;3.13;1.73;;;;;;;;;;5050862;28;20037;-75
2022/06/28 04:55:09;;;;;;;4.05;2.00;;;;;;;;;;5056000;28;20032;-74
2022/06/28 04:57:35;;;;;;;1.98;1.70;;;;;;;;;;5057366;28;20091;-75
2022/06/28 05:00:01;;;;;;;3.13;1.77;;;;;;;;;;5056115;28;20100;-75
2022/06/28 05:02:27;;;;;;;3.05;1.70;;;;;;;;;;5058434;28;20082;-74
2022/06/28 05:04:53;;;;;;;2.53;1.50;;;;;;;;;;5062056;28;20029;-75
2022/06/28 05:07:20;;;;;;;5.05;1.90;;;;;;;;;;5056842;28;20032;-74
2022/06/28 05:09:46;;;;;;;2.10;1.90;;;;;;;;;;5060863;28;20039;-74
2022/06/28 05:12:12;;;;;;;2.88;1.60;;;;;;;;;;5061861;28;20071;-75
2022/06/28 05:14:38;;;;;;;1.73;1.40;;;;;;;;;;5055589;28;20053;-75
2022/06/28 05:17:04;;;;;;;2.92;1.80;;;;;;;;;;5064652;28;20024;-75
2022/06/28 05:19:31;;;;;;;2.45;1.85;;;;;;;;;;5061041;28;20071;-75
2022/06/28 05:21:58;;;;;;;2.17;1.48;;;;;;;;;;5061517;28;20033;-75
2022/06/28 05:24:24;;;;;;;3.25;1.55;;;;;;;;;;5051614;28;20055;-75
2022/06/28 05:26:50;;;;;;;3.50;1.77;;;;;;;;;;5059060;28;20518;-75
2022/06/28 05:29:16;;;;;;;2.95;1.50;;;;;;;;;;5058691;28;20267;-74
2022/06/28 05:31:42;;;;;;;2.47;1.70;;;;;;;;;;5073684;28;20055;-73
2022/06/28 05:34:08;;;;;;;2.63;1.63;;;;;;;;;;5060008;28;20475;-74
2022/06/28 05:36:37;;;;;;;1.70;1.60;;;;;;;;;;5058862;28;20498;-75
2022/06/28 05:39:03;;;;;;;1.63;1.52;;;;;;;;;;5056155;28;20029;-74
2022/06/28 05:41:31;;;;;;;1.88;1.67;;;;;;;;;;5060131;28;20501;-74
2022/06/28 05:43:57;;;;;;;2.97;1.42;;;;;;;;;;5052909;28;20028;-74
2022/06/28 05:46:23;;;;;;;6.97;2.08;;;;;;;;;;5054176;28;20390;-74
2022/06/28 05:48:49;;;;;;;3.63;1.48;;;;;;;;;;5048439;28;20090;-75
2022/06/28 05:51:15;;;;;;;1.95;1.35;;;;;;;;;;5051991;28;20037;-74
2022/06/28 05:53:41;;;;;;;1.90;1.38;;;;;;;;;;5061750;28;20366;-74
2022/06/28 05:56:08;;;;;;;1.73;1.58;;;;;;;;;;5057031;28;20021;-75
2022/06/28 05:58:34;;;;;;;2.50;1.40;;;;;;;;;;5053677;28;20089;-74
2022/06/28 06:01:00;;;;;;;4.30;1.33;;;;;;;;;;5052942;28;20044;-74
2022/06/28 06:03:26;;;;;;;1.52;1.40;;;;;;;;;;5053485;28;20147;-74
2022/06/28 06:05:52;;;;;;;2.95;1.70;;;;;;;;;;5058489;28;20067;-74
2022/06/28 06:08:18;;;;;;;1.40;1.30;;;;;;;;;;5056850;28;20031;-75
2022/06/28 06:10:44;;;;;;;2.72;1.30;;;;;;;;;;5054763;28;20413;-75
2022/06/28 06:13:10;;;;;;;1.92;1.08;;;;;;;;;;5054643;28;20029;-74
2022/06/28 06:15:36;;;;;;;1.30;1.20;;;;;;;;;;5061143;28;20020;-75
2022/06/28 06:18:02;;;;;;;1.60;1.50;;;;;;;;;;5058027;28;20044;-75
2022/06/28 06:20:28;;;;;;;1.63;1.48;;;;;;;;;;5062658;28;20075;-75
2022/06/28 06:22:55;;;;;;;1.38;1.27;;;;;;;;;;5061862;28;20058;-75
2022/06/28 06:25:21;;;;;;;1.30;1.15;;;;;;;;;;5056146;28;20019;-74
2022/06/28 06:27:47;;;;;;;2.45;1.92;;;;;;;;;;5046949;28;20034;-74
2022/06/28 06:30:13;;;;;;;1.63;1.52;;;;;;;;;;5057319;28;20390;-75
2022/06/28 06:32:39;;;;;;;1.65;1.30;;;;;;;;;;5063336;28;20029;-75
2022/06/28 06:35:07;;;;;;;1.60;1.25;;;;;;;;;;5055542;28;20108;-76
2022/06/28 06:37:33;;;;;;;2.20;1.20;;;;;;;;;;5059451;28;20021;-75
2022/06/28 06:39:59;;;;;;;1.48;1.38;;;;;;;;;;5063312;28;20029;-74
2022/06/28 06:42:25;;;;;;;1.40;1.30;;;;;;;;;;5061002;28;20028;-74
2022/06/28 06:44:52;;;;;;;1.17;1.13;;;;;;;;;;5066742;28;20033;-75
2022/06/28 06:47:18;;;;;;;1.10;1.10;;;;;;;;;;5064076;28;20070;-75
2022/06/28 06:49:44;;;;;;;1.60;1.50;;;;;;;;;;5062226;28;20025;-74
2022/06/28 06:52:10;;;;;;;1.75;1.25;;;;;;;;;;5054411;28;20189;-74
2022/06/28 06:54:37;;;;;;;2.40;1.80;;;;;;;;;;5050433;28;20033;-74
2022/06/28 06:57:03;;;;;;;5.85;1.38;;;;;;;;;;5055978;28;20029;-72
2022/06/28 06:59:29;;;;;;;1.88;1.35;;;;;;;;;;5058759;28;20103;-75
2022/06/28 07:01:55;;;;;;;1.45;1.35;;;;;;;;;;5052137;28;20046;-75
2022/06/28 07:04:21;;;;;;;1.50;1.40;;;;;;;;;;5058683;28;20052;-74
2022/06/28 07:06:48;;;;;;;1.42;1.33;;;;;;;;;;5058719;28;20088;-75
2022/06/28 07:09:14;;;;;;;1.50;1.15;;;;;;;;;;5063839;28;20028;-74
2022/06/28 07:11:40;;;;;;;1.15;1.13;;;;;;;;;;5057848;28;20550;-75
2022/06/28 07:14:07;;;;;;;2.47;1.52;;;;;;;;;;5059364;28;20491;-75
2022/06/28 07:16:33;;;;;;;1.20;1.20;;;;;;;;;;5059769;28;20024;-75
2022/06/28 07:18:59;;;;;;;1.10;1.08;;;;;;;;;;5065568;28;20028;-73
2022/06/28 07:21:25;;;;;;;1.17;1.15;;;;;;;;;;5063547;28;20085;-75
2022/06/28 07:23:51;;;;;;;2.47;1.30;;;;;;;;;;5061989;28;20021;-76
2022/06/28 07:26:18;;;;;;;1.02;1.02;;;;;;;;;;5058999;28;20066;-74
2022/06/28 07:28:45;;;;;;;1.50;1.40;;;;;;;;;;5062719;28;20036;-76
2022/06/28 07:31:11;;;;;;;2.63;1.70;;;;;;;;;;5053718;28;20536;-76
2022/06/28 07:33:37;;;;;;;1.02;1.02;;;;;;;;;;5055774;28;20028;-76
2022/06/28 07:36:03;;;;;;;1.48;1.17;;;;;;;;;;5064068;28;20395;-76
2022/06/28 07:38:29;;;;;;;0.93;0.93;;;;;;;;;;5059449;28;20052;-77
2022/06/28 07:40:57;;;;;;;1.00;1.00;;;;;;;;;;5069982;28;20025;-76
2022/06/28 07:43:24;;;;;;;2.15;1.10;;;;;;;;;;5063756;28;20565;-75
2022/06/28 07:45:51;;;;;;;1.95;1.25;;;;;;;;;;5062019;28;20029;-75
2022/06/28 07:48:18;;;;;;;1.23;1.13;;;;;;;;;;5056833;28;20063;-76
2022/06/28 07:53:29;;;;;;;1.35;1.25;;;;;;;;;;5058278;28;20372;-76
2022/06/28 07:55:55;;;;;;;1.13;1.02;;;;;;;;;;5058660;28;20024;-76
2022/06/28 07:58:21;;;;;;;2.53;1.50;;;;;;;;;;5057813;28;20025;-75
2022/06/28 08:00:47;;;;;;;1.30;1.20;;;;;;;;;;5058229;28;20082;-75
2022/06/28 08:03:14;;;;;;;1.30;1.20;;;;;;;;;;5064529;28;20020;-76
2022/06/28 08:05:40;;;;;;;1.17;1.13;;;;;;;;;;5057835;28;20048;-74
2022/06/28 08:08:06;;;;;;;1.48;1.38;;;;;;;;;;5064528;28;20092;-73
2022/06/28 08:10:32;;;;;;;0.70;0.70;;;;;;;;;;5060501;28;20498;-75
2022/06/28 08:12:58;;;;;;;1.40;1.30;;;;;;;;;;5061842;28;20016;-75
2022/06/28 08:15:24;;;;;;;1.00;1.00;;;;;;;;;;5068205;28;20017;-75
2022/06/28 08:17:50;;;;;;;1.55;1.45;;;;;;;;;;5063773;28;20055;-75
2022/06/28 08:20:16;;;;;;;0.88;0.88;;;;;;;;;;5064954;28;20025;-74
2022/06/28 08:22:42;;;;;;;1.00;1.00;;;;;;;;;;5059756;28;20521;-75
2022/06/28 08:25:09;;;;;;;0.85;0.85;;;;;;;;;;5065218;28;20033;-75
2022/06/28 08:27:35;;;;;;;1.23;0.90;;;;;;;;;;5062216;28;20080;-75
2022/06/28 08:30:01;;;;;;;1.00;1.00;;;;;;;;;;5061954;28;20548;-74
2022/06/28 08:32:27;;;;;;;1.02;1.02;;;;;;;;;;5058399;28;20035;-74
2022/06/28 08:34:53;;;;;;;2.00;1.30;;;;;;;;;;5056403;28;20025;-75
2022/06/28 08:37:20;;;;;;;0.63;0.63;;;;;;;;;;5064504;28;20039;-74
2022/06/28 08:39:46;;;;;;;1.48;0.98;;;;;;;;;;5061752;28;20036;-75
2022/06/28 08:42:12;;;;;;;0.90;0.90;;;;;;;;;;5058859;28;20025;-75
2022/06/28 08:44:39;;;;;;;0.82;0.82;;;;;;;;;;5063493;28;20402;-75
2022/06/28 08:47:05;;;;;;;0.95;0.95;;;;;;;;;;5062655;28;20055;-75
2022/06/28 08:49:39;;;;;;;0.90;0.90;;;;;;;;;;5064524;28;20028;-75
2022/06/28 08:52:08;;;;;;;0.90;0.90;;;;;;;;;;5059652;28;20024;-74
2022/06/28 08:54:35;;;;;;;0.80;0.80;;;;;;;;;;5055431;28;20032;-74
2022/06/28 08:57:01;;;;;;;0.98;0.98;;;;;;;;;;5061268;28;20032;-76
2022/06/28 08:59:27;;;;;;;1.02;1.00;;;;;;;;;;5064609;28;20039;-75
2022/06/28 09:01:53;;;;;;;0.93;0.93;;;;;;;;;;5063894;28;20060;-76
2022/06/28 09:04:19;;;;;;;1.65;1.27;;;;;;;;;;5061206;28;20109;-76
2022/06/28 09:06:45;;;;;;;3.08;1.25;;;;;;;;;;5062934;28;20121;-74
2022/06/28 09:09:11;;;;;;;1.02;0.98;;;;;;;;;;5066774;28;20028;-74
2022/06/28 09:11:42;;;;;;;1.27;1.10;;;;;;;;;;5060329;28;20576;-75
2022/06/28 09:14:24;;;;;;;0.60;0.60;;;;;;;;;;5055672;28;20013;-75
2022/06/28 09:16:51;;;;;;;0.93;0.93;;;;;;;;;;5058833;28;20371;-75
2022/06/28 09:19:17;;;;;;;0.90;0.90;;;;;;;;;;5064723;28;20032;-75
2022/06/28 09:21:44;;;;;;;2.28;1.30;;;;;;;;;;5059391;28;20028;-74
2022/06/28 09:24:10;;;;;;;0.90;0.90;;;;;;;;;;5059275;28;20044;-75
2022/06/28 09:26:36;;;;;;;1.95;0.80;;;;;;;;;;5064394;28;20522;-75
2022/06/28 09:29:12;;;;;;;0.95;0.95;;;;;;;;;;5056746;28;20036;-75
2022/06/28 09:31:38;;;;;;;1.00;1.00;;;;;;;;;;5055237;28;20396;-76
2022/06/28 09:34:05;;;;;;;1.00;1.00;;;;;;;;;;5054113;28;20070;-75
2022/06/28 09:36:55;;;;;;;1.20;1.10;;;;;;;;;;5053341;28;20021;-75
2022/06/28 09:39:21;;;;;;;2.72;0.95;;;;;;;;;;5062385;28;20374;-76
2022/06/28 09:41:49;;;;;;;1.05;1.05;;;;;;;;;;5064633;28;20075;-75
2022/06/28 09:44:17;;;;;;;1.00;1.00;;;;;;;;;;5060402;28;20036;-75
2022/06/28 09:46:43;;;;;;;0.75;0.75;;;;;;;;;;5061986;28;20036;-75
2022/06/28 09:49:09;;;;;;;1.25;1.15;;;;;;;;;;5059892;28;20032;-75
2022/06/28 09:51:37;;;;;;;1.23;0.98;;;;;;;;;;5064069;28;20080;-76
2022/06/28 09:54:05;;;;;;;1.33;1.10;;;;;;;;;;5059660;28;20017;-76
2022/06/28 09:56:35;;;;;;;1.00;1.00;;;;;;;;;;5064708;28;20033;-75
2022/06/28 09:59:02;;;;;;;2.40;1.30;;;;;;;;;;5053561;28;20021;-76
2022/06/28 10:01:28;;;;;;;1.60;1.10;;;;;;;;;;5056326;28;20040;-76
2022/06/28 10:03:54;;;;;;;0.90;0.90;;;;;;;;;;5061433;28;20032;-77
2022/06/28 10:06:21;;;;;;;1.27;1.17;;;;;;;;;;5056935;28;20115;-76
2022/06/28 10:08:48;;;;;;;1.05;1.05;;;;;;;;;;5054547;28;20033;-76
2022/06/28 10:11:14;;;;;;;1.00;1.00;;;;;;;;;;5062222;28;20017;-75
2022/06/28 10:16:31;;;;;;;0.93;0.90;;;;;;;;;;5055632;28;20520;-77
2022/06/28 10:18:58;;;;;;;1.40;1.30;;;;;;;;;;5060110;28;20078;-74
2022/06/28 10:21:43;;;;;;;1.45;1.20;;;;;;;;;;5061792;28;20668;-76
2022/06/28 10:24:10;;;;;;;2.60;1.35;;;;;;;;;;5059162;28;20083;-75
2022/06/28 10:26:36;;;;;;;2.15;1.67;;;;;;;;;;5054014;28;20063;-76
2022/06/28 10:29:09;;;;;;;1.40;1.30;;;;;;;;;;5061124;28;20033;-77
2022/06/28 10:31:38;;;;;;;1.92;1.60;;;;;;;;;;5054223;28;20033;-74
2022/06/28 10:34:07;;;;;;;2.65;2.05;;;;;;;;;;5054756;28;20481;-74
2022/06/28 10:36:47;;;;;;;1.83;1.70;;;;;;;;;;5058440;28;20039;-73
2022/06/28 10:39:18;;;;;;;3.28;1.83;;;;;;;;;;5058622;28;20020;-74
2022/06/28 10:41:46;;;;;;;2.97;1.70;;;;;;;;;;5057812;28;20020;-74
2022/06/28 10:44:22;;;;;;;1.75;1.60;;;;;;;;;;5049604;28;20025;-74
2022/06/28 10:47:04;;;;;;;2.40;1.70;;;;;;;;;;5057272;28;20064;-75
2022/06/28 10:49:45;;;;;;;2.53;1.58;;;;;;;;;;5051483;28;20067;-75
2022/06/28 10:52:14;;;;;;;4.15;1.80;;;;;;;;;;5055413;28;20029;-75
2022/06/28 10:54:40;;;;;;;2.10;1.65;;;;;;;;;;5057105;28;20486;-74
2022/06/28 10:57:23;;;;;;;2.10;1.60;;;;;;;;;;5052885;28;20079;-74
2022/06/28 10:59:51;;;;;;;2.25;2.15;;;;;;;;;;5056054;28;20089;-74
2022/06/28 11:02:17;;;;;;;2.05;1.73;;;;;;;;;;5057197;28;20078;-75
2022/06/28 11:04:44;;;;;;;2.25;1.88;;;;;;;;;;5056715;28;20025;-75
2022/06/28 11:07:20;;;;;;;1.33;1.23;;;;;;;;;;5057677;28;20138;-75
2022/06/28 11:09:48;;;;;;;2.50;1.73;;;;;;;;;;5054912;28;20033;-74
2022/06/28 11:12:18;;;;;;;4.68;1.98;;;;;;;;;;5051861;28;20051;-75
2022/06/28 11:14:51;;;;;;;1.90;1.40;;;;;;;;;;5050013;28;20029;-76
2022/06/28 11:17:26;;;;;;;2.63;1.70;;;;;;;;;;5060732;28;20025;-75
2022/06/28 11:19:54;;;;;;;4.38;1.50;;;;;;;;;;5058752;28;20051;-74
2022/06/28 11:22:20;;;;;;;2.03;1.50;;;;;;;;;;5063303;28;20378;-75
2022/06/28 11:24:46;;;;;;;1.80;1.42;;;;;;;;;;5063221;28;20037;-75
2022/06/28 11:27:22;;;;;;;1.88;1.60;;;;;;;;;;5059866;28;20434;-74
2022/06/28 11:30:08;;;;;;;2.10;1.90;;;;;;;;;;5064426;28;20020;-74
2022/06/28 11:32:36;;;;;;;4.03;1.80;;;;;;;;;;5062007;28;20032;-75
2022/06/28 11:35:02;;;;;;;1.50;1.40;;;;;;;;;;5059833;28;20059;-73
2022/06/28 11:37:30;;;;;;;3.40;1.90;;;;;;;;;;5052846;28;20021;-75
2022/06/28 11:40:00;;;;;;;3.05;2.00;;;;;;;;;;5062657;28;20080;-74
2022/06/28 11:42:26;;;;;;;5.50;2.10;;;;;;;;;;5056214;28;20113;-74
2022/06/28 11:44:53;;;;;;;4.15;2.20;;;;;;;;;;5063327;28;20032;-75
2022/06/28 11:47:20;;;;;;;4.05;2.40;;;;;;;;;;5060158;28;20031;-74
2022/06/28 11:49:51;;;;;;;5.63;2.10;;;;;;;;;;5062299;28;20044;-76
2022/06/28 11:52:20;;;;;;;2.70;2.00;;;;;;;;;;5059773;28;20027;-74
2022/06/28 11:54:54;;;;;;;10.95;2.90;;;;;;;;;;5062639;28;20491;-73
2022/06/28 11:57:21;;;;;;;6.20;2.78;;;;;;;;;;5065906;28;20025;-74
2022/06/28 11:59:51;;;;;;;10.02;2.80;;;;;;;;;;5052953;28;20112;-75
2022/06/28 12:02:47;;;;;;;6.18;2.53;;;;;;;;;;5052964;28;20028;-75
2022/06/28 12:05:13;;;;;;;5.03;2.33;;;;;;;;;;5055594;28;20045;-75
2022/06/28 12:07:41;;;;;;;8.90;3.13;;;;;;;;;;5061304;28;20035;-74
2022/06/28 12:10:19;;;;;;;6.68;3.00;;;;;;;;;;5066937;28;20029;-74
2022/06/28 12:12:45;;;;;;;5.35;2.58;;;;;;;;;;5061019;28;20029;-75
2022/06/28 12:15:11;;;;;;;7.65;2.75;;;;;;;;;;5056934;28;20037;-74
2022/06/28 12:17:48;;;;;;;10.50;3.10;;;;;;;;;;5062402;28;20021;-74
2022/06/28 12:20:15;;;;;;;7.53;3.05;;;;;;;;;;5060144;28;20027;-75
2022/06/28 12:22:42;;;;;;;8.60;3.30;;;;;;;;;;5057727;28;20029;-75
2022/06/28 12:25:12;;;;;;;12.43;3.17;;;;;;;;;;5058008;28;20029;-74
2022/06/28 12:27:38;;;;;;;9.60;3.47;;;;;;;;;;5054612;28;20214;-75
2022/06/28 12:30:06;;;;;;;9.65;3.45;;;;;;;;;;5061481;28;20020;-75
2022/06/28 12:32:32;;;;;;;8.85;3.72;;;;;;;;;;5049333;28;20475;-75
2022/06/28 12:35:03;;;;;;;11.60;3.33;;;;;;;;;;5061948;28;20028;-75
2022/06/28 12:37:29;;;;;;;10.60;3.45;;;;;;;;;;5055505;28;20027;-75
2022/06/28 12:39:55;;;;;;;10.63;3.35;;;;;;;;;;5062719;28;20044;-74
2022/06/28 12:42:22;;;;;;;8.18;2.90;;;;;;;;;;5067299;28;20399;-74
2022/06/28 12:44:48;;;;;;;6.55;2.63;;;;;;;;;;5057618;28;20013;-77
2022/06/28 12:47:15;;;;;;;11.27;3.58;;;;;;;;;;5061014;28;20106;-74
2022/06/28 12:49:42;;;;;;;10.00;3.03;;;;;;;;;;5065912;28;20546;-75
2022/06/28 12:52:08;;;;;;;7.82;3.13;;;;;;;;;;5053075;28;20021;-74
2022/06/28 12:54:34;;;;;;;11.40;3.92;;;;;;;;;;5058963;28;20112;-75
2022/06/28 12:57:00;;;;;;;7.90;3.55;;;;;;;;;;5053257;28;20032;-75
2022/06/28 12:59:26;;;;;;;11.57;2.90;;;;;;;;;;5062927;28;20031;-76
2022/06/28 13:01:53;;;;;;;14.50;3.88;;;;;;;;;;5064288;28;20475;-74
2022/06/28 13:04:19;;;;;;;5.63;3.15;;;;;;;;;;5054544;28;20054;-75
2022/06/28 13:06:47;;;;;;;4.95;2.70;;;;;;;;;;5059257;28;20025;-75
2022/06/28 13:09:16;;;;;;;10.10;3.25;;;;;;;;;;5068967;28;20115;-74
2022/06/28 13:11:42;;;;;;;7.47;3.13;;;;;;;;;;5055621;28;20487;-75
2022/06/28 13:14:09;;;;;;;8.20;3.00;;;;;;;;;;5058316;28;20033;-74
2022/06/28 13:16:36;;;;;;;10.90;3.08;;;;;;;;;;5056381;28;20026;-75
2022/06/28 13:19:02;;;;;;;8.10;3.13;;;;;;;;;;5063390;28;20047;-76
2022/06/28 13:21:29;;;;;;;7.88;2.45;;;;;;;;;;5064880;28;20028;-75
2022/06/28 13:23:55;;;;;;;9.88;3.00;;;;;;;;;;5070843;28;20063;-75
2022/06/28 13:26:22;;;;;;;10.30;3.33;;;;;;;;;;5060788;28;20045;-75
2022/06/28 13:28:50;;;;;;;8.30;2.75;;;;;;;;;;5059713;28;20410;-75
2022/06/28 13:31:17;;;;;;;8.10;3.00;;;;;;;;;;5056875;28;20028;-75
2022/06/28 13:33:43;;;;;;;8.35;2.78;;;;;;;;;;5059464;28;20021;-75
2022/06/28 13:36:09;;;;;;;9.30;3.58;;;;;;;;;;5054749;28;20048;-76
2022/06/28 13:38:35;;;;;;;5.20;2.97;;;;;;;;;;5050968;28;20551;-74
2022/06/28 13:41:01;;;;;;;5.38;2.72;;;;;;;;;;5053150;28;20029;-75
2022/06/28 13:43:33;;;;;;;7.63;3.08;;;;;;;;;;5050008;28;20028;-76
2022/06/28 13:46:00;;;;;;;4.50;2.20;;;;;;;;;;5051562;28;20021;-76
2022/06/28 13:48:26;;;;;;;4.93;2.42;;;;;;;;;;5060429;28;20080;-75
2022/06/28 13:50:52;;;;;;;11.38;3.10;;;;;;;;;;5058100;28;20033;-75
2022/06/28 13:53:18;;;;;;;7.43;2.90;;;;;;;;;;5053194;28;20021;-76
2022/06/28 13:55:46;;;;;;;7.07;3.13;;;;;;;;;;5052663;28;20087;-75
2022/06/28 13:58:15;;;;;;;5.90;3.08;;;;;;;;;;5057737;28;20460;-76
2022/06/28 14:00:41;;;;;;;6.47;2.47;;;;;;;;;;5067018;28;20029;-75
2022/06/28 14:03:08;;;;;;;9.13;2.80;;;;;;;;;;5064321;28;20042;-76
2022/06/28 14:05:34;;;;;;;10.90;2.88;;;;;;;;;;5059179;28;20434;-76
2022/06/28 14:08:00;;;;;;;6.70;2.45;;;;;;;;;;5055789;28;20021;-76
2022/06/28 14:10:26;;;;;;;5.60;2.95;;;;;;;;;;5057780;28;20442;-76
2022/06/28 14:12:56;;;;;;;13.15;3.08;;;;;;;;;;5059722;28;20059;-76
2022/06/28 14:15:22;;;;;;;13.02;3.45;;;;;;;;;;5051362;28;20032;-75
2022/06/28 14:17:49;;;;;;;7.30;2.45;;;;;;;;;;5059323;28;20466;-74
2022/06/28 14:20:15;;;;;;;7.13;3.05;;;;;;;;;;5059118;28;20043;-76
2022/06/28 14:22:41;;;;;;;7.88;2.78;;;;;;;;;;5058209;28;20696;-76
2022/06/28 14:25:08;;;;;;;5.60;2.58;;;;;;;;;;5059914;28;20498;-75
2022/06/28 14:27:34;;;;;;;6.63;2.45;;;;;;;;;;5053348;28;20055;-76
2022/06/28 14:30:00;;;;;;;5.65;2.17;;;;;;;;;;5050407;28;20032;-75
2022/06/28 14:32:26;;;;;;;5.68;2.40;;;;;;;;;;5052772;28;20387;-75
2022/06/28 14:34:52;;;;;;;4.05;2.35;;;;;;;;;;5055609;28;20025;-76
2022/06/28 14:37:18;;;;;;;7.57;2.88;;;;;;;;;;5054142;28;20285;-76
2022/06/28 14:39:44;;;;;;;5.10;2.30;;;;;;;;;;5058385;28;20044;-75
2022/06/28 14:42:10;;;;;;;6.50;2.45;;;;;;;;;;5058698;28;20033;-76
2022/06/28 14:44:37;;;;;;;6.35;2.42;;;;;;;;;;5059690;28;20107;-74
2022/06/28 14:47:03;;;;;;;6.75;2.42;;;;;;;;;;5058468;28;20577;-75
2022/06/28 14:49:30;;;;;;;2.75;2.13;;;;;;;;;;5056839;28;20725;-76
2022/06/28 14:51:57;;;;;;;4.25;2.15;;;;;;;;;;5058613;28;20044;-75
2022/06/28 14:54:23;;;;;;;5.50;2.90;;;;;;;;;;5058606;28;20115;-75